AAY2667 KPIE-KBGR
Flight info
| Callsign | AAY2667 |
|---|---|
| Flight time | 2h 39m |
| Altitude | 35000 |
| Route | BAYPO2 CAMJO HEPAR Q99 POLYY DADDS Q87 GEARS BBOBO Q22 FOXWD BOS |
| Aircraft | A320/M-VGDW/C |
Departure
| Time | 2026-05-07 14:57 |
|---|---|
| Airport | St. Petersburg Clearwater International Airport (KPIE) |
Arrival
| Time | 2026-05-07 17:36 |
|---|---|
| Airport | Bangor International Airport (KBGR) |
| Time | Latitude | Longitude | Altitude | Speed | Heading |
|---|---|---|---|---|---|
| 2026-05-07 14:50 | 27.90757 | -82.69064 | 24 ft | 0 kts | 178° |
| 2026-05-07 14:52 | 27.90770 | -82.69065 | 29 ft | 3 kts | 178° |
| 2026-05-07 14:53 | 27.90789 | -82.69066 | 29 ft | 3 kts | 178° |
| 2026-05-07 14:53 | 27.90807 | -82.69067 | 25 ft | 3 kts | 157° |
| 2026-05-07 14:53 | 27.90823 | -82.69080 | 27 ft | 3 kts | 113° |
| 2026-05-07 14:53 | 27.90826 | -82.69095 | 29 ft | 0 kts | 82° |
| 2026-05-07 14:54 | 27.90826 | -82.69093 | 29 ft | 4 kts | 82° |
| 2026-05-07 14:54 | 27.90862 | -82.68981 | 26 ft | 22 kts | 27° |
| 2026-05-07 14:54 | 27.91048 | -82.69002 | 24 ft | 31 kts | 352° |
| 2026-05-07 14:55 | 27.91274 | -82.69039 | 24 ft | 34 kts | 352° |
| 2026-05-07 14:55 | 27.91520 | -82.69085 | 26 ft | 38 kts | 351° |
| 2026-05-07 14:55 | 27.91788 | -82.69131 | 26 ft | 40 kts | 351° |
| 2026-05-07 14:55 | 27.92072 | -82.69182 | 25 ft | 41 kts | 351° |
| 2026-05-07 14:56 | 27.92288 | -82.69203 | 25 ft | 21 kts | 26° |
| 2026-05-07 14:56 | 27.92309 | -82.69180 | 26 ft | 0 kts | 52° |
| 2026-05-07 14:56 | 27.92322 | -82.69144 | 22 ft | 13 kts | 72° |
| 2026-05-07 14:56 | 27.92247 | -82.69053 | 24 ft | 41 kts | 171° |
| 2026-05-07 14:57 | 27.91666 | -82.68952 | 22 ft | 127 kts | 171° |
| 2026-05-07 14:57 | 27.90556 | -82.68758 | 369 ft | 179 kts | 172° |
| 2026-05-07 14:57 | 27.89372 | -82.68520 | 1820 ft | 167 kts | 173° |
| 2026-05-07 14:57 | 27.88208 | -82.68216 | 2886 ft | 180 kts | 158° |
| 2026-05-07 14:58 | 27.87389 | -82.67086 | 3798 ft | 205 kts | 105° |
| 2026-05-07 14:58 | 27.87552 | -82.65393 | 4550 ft | 235 kts | 59° |
| 2026-05-07 14:58 | 27.88748 | -82.64099 | 5472 ft | 248 kts | 21° |
| 2026-05-07 14:58 | 27.90439 | -82.63504 | 6438 ft | 263 kts | 11° |
| 2026-05-07 14:59 | 27.92287 | -82.63088 | 7367 ft | 278 kts | 8° |
| 2026-05-07 14:59 | 27.94216 | -82.62718 | 8290 ft | 291 kts | 7° |
| 2026-05-07 14:59 | 27.96245 | -82.62352 | 9373 ft | 298 kts | 6° |
| 2026-05-07 14:59 | 27.98320 | -82.61977 | 10441 ft | 306 kts | 6° |
| 2026-05-07 15:00 | 28.00503 | -82.61576 | 11074 ft | 328 kts | 6° |
| 2026-05-07 15:00 | 28.02823 | -82.61136 | 11743 ft | 348 kts | 7° |
| 2026-05-07 15:00 | 28.05282 | -82.60656 | 12438 ft | 366 kts | 7° |
| 2026-05-07 15:00 | 28.07846 | -82.60143 | 13157 ft | 381 kts | 7° |
| 2026-05-07 15:01 | 28.10503 | -82.59598 | 13885 ft | 395 kts | 7° |
| 2026-05-07 15:01 | 28.13247 | -82.59022 | 14613 ft | 405 kts | 7° |
| 2026-05-07 15:01 | 28.15996 | -82.58433 | 15537 ft | 409 kts | 7° |
| 2026-05-07 15:01 | 28.18808 | -82.57869 | 16450 ft | 411 kts | 3° |
| 2026-05-07 15:02 | 28.21667 | -82.57664 | 17343 ft | 412 kts | 357° |
| 2026-05-07 15:02 | 28.24548 | -82.57649 | 18230 ft | 415 kts | 355° |
| 2026-05-07 15:02 | 28.27451 | -82.57716 | 18992 ft | 419 kts | 354° |
| 2026-05-07 15:02 | 28.30381 | -82.57825 | 19707 ft | 423 kts | 353° |
| 2026-05-07 15:03 | 28.32339 | -82.57908 | 20169 ft | 426 kts | 353° |
| 2026-05-07 15:03 | 28.35317 | -82.58023 | 20870 ft | 430 kts | 353° |
| 2026-05-07 15:03 | 28.38328 | -82.58124 | 21567 ft | 434 kts | 353° |
| 2026-05-07 15:03 | 28.42360 | -82.58243 | 22459 ft | 440 kts | 353° |
| 2026-05-07 15:04 | 28.45438 | -82.58327 | 23122 ft | 444 kts | 353° |
| 2026-05-07 15:04 | 28.47536 | -82.58383 | 23568 ft | 447 kts | 353° |
| 2026-05-07 15:04 | 28.50617 | -82.58462 | 24113 ft | 451 kts | 353° |
| 2026-05-07 15:04 | 28.53769 | -82.58541 | 24639 ft | 455 kts | 353° |
| 2026-05-07 15:05 | 28.56943 | -82.58619 | 25152 ft | 459 kts | 353° |
| 2026-05-07 15:05 | 28.60150 | -82.58696 | 25655 ft | 462 kts | 353° |
| 2026-05-07 15:05 | 28.63380 | -82.58781 | 26146 ft | 466 kts | 352° |
| 2026-05-07 15:05 | 28.66624 | -82.59024 | 26629 ft | 467 kts | 349° |
| 2026-05-07 15:06 | 28.69857 | -82.59373 | 27307 ft | 465 kts | 348° |
| 2026-05-07 15:06 | 28.73069 | -82.59765 | 27980 ft | 464 kts | 347° |
| 2026-05-07 15:06 | 28.76279 | -82.60180 | 28666 ft | 463 kts | 347° |
| 2026-05-07 15:06 | 28.79434 | -82.60602 | 29313 ft | 462 kts | 347° |
| 2026-05-07 15:07 | 28.82628 | -82.61037 | 29976 ft | 461 kts | 347° |
| 2026-05-07 15:07 | 28.85815 | -82.61475 | 30554 ft | 460 kts | 346° |
| 2026-05-07 15:07 | 28.88991 | -82.61914 | 31119 ft | 459 kts | 346° |
| 2026-05-07 15:07 | 28.92168 | -82.62355 | 31703 ft | 457 kts | 346° |
| 2026-05-07 15:08 | 28.95330 | -82.62796 | 32271 ft | 456 kts | 346° |
| 2026-05-07 15:08 | 28.98434 | -82.63230 | 32835 ft | 455 kts | 346° |
| 2026-05-07 15:08 | 29.01572 | -82.63670 | 33396 ft | 453 kts | 346° |
| 2026-05-07 15:08 | 29.04695 | -82.64106 | 33964 ft | 452 kts | 346° |
| 2026-05-07 15:09 | 29.07812 | -82.64543 | 34435 ft | 448 kts | 346° |
| 2026-05-07 15:09 | 29.10863 | -82.64967 | 34718 ft | 438 kts | 346° |
| 2026-05-07 15:09 | 29.13905 | -82.65394 | 34856 ft | 441 kts | 346° |
| 2026-05-07 15:09 | 29.16969 | -82.65829 | 34919 ft | 446 kts | 346° |
| 2026-05-07 15:10 | 29.23152 | -82.66706 | 34959 ft | 446 kts | 346° |
| 2026-05-07 15:10 | 29.29287 | -82.67565 | 34966 ft | 443 kts | 346° |
| 2026-05-07 15:11 | 29.35378 | -82.68421 | 34968 ft | 444 kts | 346° |
| 2026-05-07 15:11 | 29.41559 | -82.69050 | 35019 ft | 448 kts | 351° |
| 2026-05-07 15:12 | 29.47859 | -82.69202 | 35055 ft | 461 kts | 352° |
| 2026-05-07 15:12 | 29.54288 | -82.69234 | 35057 ft | 465 kts | 353° |
| 2026-05-07 15:13 | 29.60726 | -82.69208 | 35061 ft | 461 kts | 353° |
| 2026-05-07 15:13 | 29.67147 | -82.69170 | 35062 ft | 462 kts | 353° |
| 2026-05-07 15:14 | 29.73603 | -82.69130 | 35061 ft | 463 kts | 353° |
| 2026-05-07 15:14 | 29.80046 | -82.69087 | 35062 ft | 462 kts | 353° |
| 2026-05-07 15:15 | 29.86475 | -82.69044 | 35065 ft | 462 kts | 353° |
| 2026-05-07 15:15 | 29.92916 | -82.69004 | 35077 ft | 463 kts | 353° |
| 2026-05-07 15:16 | 29.99324 | -82.68963 | 35083 ft | 462 kts | 353° |
| 2026-05-07 15:16 | 30.05749 | -82.68921 | 35087 ft | 461 kts | 352° |
| 2026-05-07 15:17 | 30.12173 | -82.68882 | 35094 ft | 462 kts | 352° |
| 2026-05-07 15:17 | 30.18564 | -82.68843 | 35093 ft | 461 kts | 352° |
| 2026-05-07 15:18 | 30.24991 | -82.68806 | 35093 ft | 462 kts | 353° |
| 2026-05-07 15:18 | 30.31446 | -82.68770 | 35097 ft | 464 kts | 353° |
| 2026-05-07 15:19 | 30.37911 | -82.68730 | 35099 ft | 464 kts | 353° |
| 2026-05-07 15:19 | 30.44372 | -82.68688 | 35110 ft | 465 kts | 353° |
| 2026-05-07 15:20 | 30.50883 | -82.68281 | 35120 ft | 473 kts | 0° |
| 2026-05-07 15:20 | 30.57415 | -82.67142 | 35127 ft | 475 kts | 2° |
| 2026-05-07 15:21 | 30.63910 | -82.65841 | 35133 ft | 476 kts | 3° |
| 2026-05-07 15:21 | 30.70444 | -82.64475 | 35124 ft | 477 kts | 3° |
| 2026-05-07 15:22 | 30.76993 | -82.63086 | 35107 ft | 478 kts | 3° |
| 2026-05-07 15:22 | 30.83493 | -82.61696 | 35099 ft | 477 kts | 3° |
| 2026-05-07 15:23 | 30.90020 | -82.60297 | 35099 ft | 477 kts | 4° |
| 2026-05-07 15:23 | 30.96561 | -82.58892 | 35102 ft | 478 kts | 4° |
| 2026-05-07 15:24 | 31.03105 | -82.57484 | 35099 ft | 477 kts | 4° |
| 2026-05-07 15:24 | 31.09511 | -82.55189 | 35096 ft | 489 kts | 17° |
| 2026-05-07 15:25 | 31.15663 | -82.51790 | 35088 ft | 493 kts | 20° |
| 2026-05-07 15:25 | 31.21806 | -82.48181 | 35074 ft | 494 kts | 21° |
| 2026-05-07 15:26 | 31.27922 | -82.44515 | 35075 ft | 494 kts | 21° |
| 2026-05-07 15:26 | 31.34046 | -82.40816 | 35078 ft | 495 kts | 21° |
| 2026-05-07 15:27 | 31.40130 | -82.37123 | 35061 ft | 495 kts | 21° |
| 2026-05-07 15:27 | 31.46244 | -82.33401 | 35037 ft | 495 kts | 21° |
| 2026-05-07 15:28 | 31.52361 | -82.29668 | 35031 ft | 496 kts | 21° |
| 2026-05-07 15:28 | 31.58491 | -82.25921 | 35023 ft | 496 kts | 21° |
| 2026-05-07 15:29 | 31.64613 | -82.22171 | 35010 ft | 496 kts | 21° |
| 2026-05-07 15:29 | 31.70727 | -82.18418 | 35008 ft | 495 kts | 21° |
| 2026-05-07 15:30 | 31.76841 | -82.14664 | 34976 ft | 496 kts | 21° |
| 2026-05-07 15:30 | 31.82932 | -82.10917 | 34975 ft | 498 kts | 21° |
| 2026-05-07 15:31 | 31.89068 | -82.07135 | 34968 ft | 497 kts | 21° |
| 2026-05-07 15:31 | 31.95208 | -82.03343 | 34968 ft | 498 kts | 21° |
| 2026-05-07 15:32 | 32.01359 | -81.99541 | 34968 ft | 499 kts | 21° |
| 2026-05-07 15:32 | 32.07509 | -81.95732 | 34968 ft | 499 kts | 21° |
| 2026-05-07 15:33 | 32.13633 | -81.91964 | 34977 ft | 499 kts | 20° |
| 2026-05-07 15:33 | 32.19843 | -81.88272 | 34975 ft | 499 kts | 20° |
| 2026-05-07 15:34 | 32.26071 | -81.84607 | 34974 ft | 500 kts | 20° |
| 2026-05-07 15:34 | 32.32313 | -81.80940 | 34976 ft | 501 kts | 20° |
| 2026-05-07 15:35 | 32.38571 | -81.77259 | 34978 ft | 501 kts | 20° |
| 2026-05-07 15:35 | 32.44785 | -81.73600 | 34979 ft | 502 kts | 20° |
| 2026-05-07 15:36 | 32.51045 | -81.69907 | 34977 ft | 503 kts | 20° |
| 2026-05-07 15:36 | 32.57324 | -81.66197 | 34999 ft | 504 kts | 20° |
| 2026-05-07 15:37 | 32.63610 | -81.62475 | 35001 ft | 505 kts | 20° |
| 2026-05-07 15:37 | 32.69910 | -81.58738 | 35004 ft | 506 kts | 20° |
| 2026-05-07 15:38 | 32.76196 | -81.55004 | 34993 ft | 508 kts | 20° |
| 2026-05-07 15:38 | 32.82530 | -81.51236 | 34977 ft | 509 kts | 20° |
| 2026-05-07 15:39 | 32.88861 | -81.47463 | 34943 ft | 509 kts | 20° |
| 2026-05-07 15:39 | 32.95199 | -81.43679 | 34949 ft | 509 kts | 19° |
| 2026-05-07 15:40 | 33.01552 | -81.39881 | 34954 ft | 511 kts | 19° |
| 2026-05-07 15:40 | 33.07883 | -81.36090 | 34953 ft | 512 kts | 19° |
| 2026-05-07 15:41 | 33.14252 | -81.32270 | 34900 ft | 512 kts | 19° |
| 2026-05-07 15:41 | 33.20622 | -81.28442 | 34901 ft | 514 kts | 19° |
| 2026-05-07 15:42 | 33.27029 | -81.24586 | 34902 ft | 515 kts | 19° |
| 2026-05-07 15:42 | 33.33427 | -81.20728 | 34910 ft | 515 kts | 19° |
| 2026-05-07 15:43 | 33.39799 | -81.16880 | 34921 ft | 517 kts | 19° |
| 2026-05-07 15:43 | 33.46230 | -81.12991 | 34907 ft | 517 kts | 19° |
| 2026-05-07 15:44 | 33.52648 | -81.09099 | 34899 ft | 516 kts | 19° |
| 2026-05-07 15:44 | 33.59079 | -81.05198 | 34899 ft | 519 kts | 19° |
| 2026-05-07 15:45 | 33.65534 | -81.01274 | 34893 ft | 519 kts | 19° |
| 2026-05-07 15:45 | 33.71983 | -80.97346 | 34899 ft | 519 kts | 18° |
| 2026-05-07 15:46 | 33.81641 | -80.91455 | 34901 ft | 521 kts | 19° |
| 2026-05-07 15:47 | 33.87821 | -80.86724 | 34903 ft | 531 kts | 28° |
| 2026-05-07 15:47 | 33.93780 | -80.81376 | 34912 ft | 536 kts | 30° |
| 2026-05-07 15:48 | 33.99657 | -80.75836 | 34913 ft | 535 kts | 31° |
| 2026-05-07 15:48 | 34.05486 | -80.70322 | 34907 ft | 535 kts | 31° |
| 2026-05-07 15:49 | 34.11346 | -80.64782 | 34916 ft | 535 kts | 31° |
| 2026-05-07 15:49 | 34.17216 | -80.59232 | 34915 ft | 536 kts | 30° |
| 2026-05-07 15:50 | 34.23080 | -80.53683 | 34919 ft | 535 kts | 30° |
| 2026-05-07 15:50 | 34.28970 | -80.48192 | 34916 ft | 535 kts | 30° |
| 2026-05-07 15:51 | 34.34889 | -80.42728 | 34909 ft | 535 kts | 30° |
| 2026-05-07 15:51 | 34.40814 | -80.37263 | 34899 ft | 535 kts | 30° |
| 2026-05-07 15:52 | 34.45737 | -80.32718 | 34904 ft | 536 kts | 30° |
| 2026-05-07 15:52 | 34.51677 | -80.27218 | 34909 ft | 537 kts | 30° |
| 2026-05-07 15:53 | 34.57615 | -80.21700 | 34905 ft | 536 kts | 30° |
| 2026-05-07 15:53 | 34.63548 | -80.16174 | 34907 ft | 536 kts | 29° |
| 2026-05-07 15:54 | 34.69485 | -80.10642 | 34912 ft | 537 kts | 29° |
| 2026-05-07 15:54 | 34.75378 | -80.05157 | 34918 ft | 537 kts | 29° |
| 2026-05-07 15:55 | 34.81075 | -79.99191 | 34923 ft | 548 kts | 40° |
| 2026-05-07 15:55 | 34.86139 | -79.92158 | 34927 ft | 553 kts | 43° |
| 2026-05-07 15:56 | 34.91037 | -79.84968 | 34930 ft | 554 kts | 44° |
| 2026-05-07 15:56 | 34.95925 | -79.77679 | 34932 ft | 555 kts | 45° |
| 2026-05-07 15:57 | 35.00813 | -79.70350 | 34921 ft | 558 kts | 45° |
| 2026-05-07 15:57 | 35.05719 | -79.62967 | 34884 ft | 559 kts | 45° |
| 2026-05-07 15:58 | 35.10621 | -79.55565 | 34885 ft | 560 kts | 45° |
| 2026-05-07 15:58 | 35.15501 | -79.48184 | 34881 ft | 563 kts | 45° |
| 2026-05-07 15:59 | 35.20426 | -79.40721 | 34909 ft | 564 kts | 45° |
| 2026-05-07 15:59 | 35.25345 | -79.33256 | 34910 ft | 564 kts | 45° |
| 2026-05-07 16:00 | 35.30270 | -79.25767 | 34907 ft | 564 kts | 45° |
| 2026-05-07 16:00 | 35.35189 | -79.18271 | 34901 ft | 564 kts | 44° |
| 2026-05-07 16:01 | 35.40102 | -79.10763 | 34911 ft | 564 kts | 44° |
| 2026-05-07 16:01 | 35.45018 | -79.03239 | 34915 ft | 565 kts | 44° |
| 2026-05-07 16:02 | 35.49935 | -78.95703 | 34911 ft | 565 kts | 44° |
| 2026-05-07 16:02 | 35.54834 | -78.88179 | 34909 ft | 564 kts | 44° |
| 2026-05-07 16:03 | 35.59776 | -78.80801 | 34899 ft | 555 kts | 34° |
| 2026-05-07 16:03 | 35.62765 | -78.77932 | 34909 ft | 541 kts | 23° |
| 2026-05-07 16:03 | 35.65941 | -78.75464 | 34900 ft | 537 kts | 20° |
| 2026-05-07 16:04 | 35.72348 | -78.70844 | 34910 ft | 532 kts | 19° |
| 2026-05-07 16:04 | 35.78828 | -78.66328 | 34924 ft | 537 kts | 18° |
| 2026-05-07 16:05 | 35.85292 | -78.61841 | 34903 ft | 534 kts | 18° |
| 2026-05-07 16:05 | 35.91769 | -78.57335 | 34899 ft | 535 kts | 18° |
| 2026-05-07 16:06 | 35.98266 | -78.52806 | 34896 ft | 536 kts | 18° |
| 2026-05-07 16:06 | 36.04761 | -78.48263 | 34897 ft | 536 kts | 18° |
| 2026-05-07 16:07 | 36.11255 | -78.43705 | 34903 ft | 537 kts | 18° |
| 2026-05-07 16:07 | 36.17762 | -78.39127 | 34903 ft | 538 kts | 18° |
| 2026-05-07 16:08 | 36.24267 | -78.34538 | 34939 ft | 537 kts | 18° |
| 2026-05-07 16:08 | 36.30715 | -78.29977 | 34935 ft | 537 kts | 18° |
| 2026-05-07 16:09 | 36.37107 | -78.25061 | 34935 ft | 551 kts | 28° |
| 2026-05-07 16:09 | 36.42938 | -78.18843 | 34922 ft | 558 kts | 33° |
| 2026-05-07 16:10 | 36.48647 | -78.12280 | 34954 ft | 558 kts | 33° |
| 2026-05-07 16:10 | 36.51651 | -78.09344 | 34984 ft | 542 kts | 23° |
| 2026-05-07 16:10 | 36.54817 | -78.06822 | 34985 ft | 538 kts | 20° |
| 2026-05-07 16:11 | 36.61245 | -78.02045 | 35007 ft | 536 kts | 19° |
| 2026-05-07 16:11 | 36.67635 | -77.97370 | 35008 ft | 535 kts | 19° |
| 2026-05-07 16:12 | 36.74058 | -77.92639 | 34998 ft | 536 kts | 19° |
| 2026-05-07 16:12 | 36.80489 | -77.87853 | 34958 ft | 537 kts | 19° |
| 2026-05-07 16:13 | 36.86849 | -77.83068 | 34955 ft | 536 kts | 20° |
| 2026-05-07 16:13 | 36.93228 | -77.78229 | 34947 ft | 536 kts | 20° |
| 2026-05-07 16:14 | 36.99606 | -77.73361 | 34941 ft | 536 kts | 20° |
| 2026-05-07 16:14 | 37.05970 | -77.68474 | 34968 ft | 536 kts | 20° |
| 2026-05-07 16:15 | 37.12281 | -77.63607 | 34981 ft | 536 kts | 20° |
| 2026-05-07 16:15 | 37.18626 | -77.58696 | 34984 ft | 536 kts | 20° |
| 2026-05-07 16:16 | 37.24970 | -77.53769 | 34979 ft | 535 kts | 21° |
| 2026-05-07 16:16 | 37.31296 | -77.48840 | 34973 ft | 535 kts | 21° |
| 2026-05-07 16:17 | 37.37627 | -77.43894 | 34977 ft | 535 kts | 21° |
| 2026-05-07 16:17 | 37.43905 | -77.38976 | 34977 ft | 535 kts | 21° |
| 2026-05-07 16:18 | 37.50226 | -77.34015 | 34980 ft | 535 kts | 21° |
| 2026-05-07 16:18 | 37.56552 | -77.29038 | 34977 ft | 535 kts | 21° |
| 2026-05-07 16:19 | 37.62878 | -77.24052 | 34978 ft | 536 kts | 21° |
| 2026-05-07 16:19 | 37.69215 | -77.19044 | 34984 ft | 536 kts | 21° |
| 2026-05-07 16:20 | 37.75535 | -77.14033 | 34978 ft | 535 kts | 21° |
| 2026-05-07 16:20 | 37.81856 | -77.09017 | 34979 ft | 537 kts | 21° |
| 2026-05-07 16:21 | 37.88150 | -77.04014 | 34983 ft | 538 kts | 21° |
| 2026-05-07 16:21 | 37.94501 | -76.98949 | 35005 ft | 538 kts | 21° |
| 2026-05-07 16:22 | 38.00856 | -76.93873 | 34986 ft | 540 kts | 21° |
| 2026-05-07 16:22 | 38.07153 | -76.88830 | 34974 ft | 540 kts | 21° |
| 2026-05-07 16:23 | 38.13504 | -76.83726 | 34975 ft | 539 kts | 21° |
| 2026-05-07 16:23 | 38.19856 | -76.78616 | 34976 ft | 542 kts | 21° |
| 2026-05-07 16:24 | 38.26137 | -76.73209 | 34964 ft | 550 kts | 27° |
| 2026-05-07 16:24 | 38.32057 | -76.67026 | 34966 ft | 556 kts | 31° |
| 2026-05-07 16:25 | 38.37912 | -76.60567 | 34968 ft | 557 kts | 32° |
| 2026-05-07 16:25 | 38.43769 | -76.54113 | 34968 ft | 555 kts | 31° |
| 2026-05-07 16:26 | 38.49663 | -76.47753 | 34970 ft | 554 kts | 30° |
| 2026-05-07 16:26 | 38.55569 | -76.41408 | 34972 ft | 555 kts | 30° |
| 2026-05-07 16:27 | 38.61468 | -76.35061 | 34975 ft | 554 kts | 30° |
| 2026-05-07 16:27 | 38.67328 | -76.28742 | 34971 ft | 554 kts | 30° |
| 2026-05-07 16:28 | 38.73226 | -76.22364 | 34968 ft | 555 kts | 30° |
| 2026-05-07 16:28 | 38.79120 | -76.15969 | 34965 ft | 555 kts | 30° |
| 2026-05-07 16:29 | 38.85011 | -76.09558 | 34968 ft | 555 kts | 30° |
| 2026-05-07 16:29 | 38.90892 | -76.03140 | 34968 ft | 555 kts | 30° |
| 2026-05-07 16:30 | 38.96731 | -75.96617 | 34968 ft | 556 kts | 32° |
| 2026-05-07 16:30 | 39.02461 | -75.89919 | 34960 ft | 558 kts | 33° |
| 2026-05-07 16:31 | 39.08164 | -75.83143 | 34953 ft | 558 kts | 33° |
| 2026-05-07 16:31 | 39.13824 | -75.76372 | 34948 ft | 557 kts | 33° |
| 2026-05-07 16:32 | 39.19483 | -75.69576 | 34943 ft | 555 kts | 33° |
| 2026-05-07 16:32 | 39.25140 | -75.62768 | 34940 ft | 556 kts | 33° |
| 2026-05-07 16:33 | 39.30792 | -75.55958 | 34940 ft | 555 kts | 33° |
| 2026-05-07 16:33 | 39.36438 | -75.49157 | 34947 ft | 554 kts | 33° |
| 2026-05-07 16:34 | 39.42077 | -75.42352 | 34953 ft | 553 kts | 33° |
| 2026-05-07 16:34 | 39.47674 | -75.35581 | 34952 ft | 554 kts | 33° |
| 2026-05-07 16:35 | 39.53288 | -75.28769 | 34956 ft | 553 kts | 33° |
| 2026-05-07 16:35 | 39.58904 | -75.21931 | 34950 ft | 553 kts | 33° |
| 2026-05-07 16:36 | 39.64500 | -75.15094 | 34950 ft | 551 kts | 33° |
| 2026-05-07 16:36 | 39.70174 | -75.08417 | 34948 ft | 549 kts | 31° |
| 2026-05-07 16:37 | 39.75893 | -75.01924 | 34950 ft | 547 kts | 31° |
| 2026-05-07 16:37 | 39.81643 | -74.95452 | 34934 ft | 547 kts | 31° |
| 2026-05-07 16:38 | 39.86424 | -74.90069 | 34940 ft | 546 kts | 31° |
| 2026-05-07 16:38 | 39.92338 | -74.83939 | 34919 ft | 539 kts | 26° |
| 2026-05-07 16:39 | 39.98431 | -74.78207 | 34937 ft | 540 kts | 24° |
| 2026-05-07 16:39 | 40.04308 | -74.72017 | 34933 ft | 553 kts | 35° |
| 2026-05-07 16:40 | 40.09694 | -74.64802 | 34936 ft | 555 kts | 38° |
| 2026-05-07 16:40 | 40.14926 | -74.57333 | 34939 ft | 558 kts | 39° |
| 2026-05-07 16:41 | 40.20237 | -74.49965 | 34945 ft | 549 kts | 33° |
| 2026-05-07 16:41 | 40.25934 | -74.43467 | 34943 ft | 545 kts | 30° |
| 2026-05-07 16:42 | 40.31771 | -74.37148 | 34940 ft | 543 kts | 29° |
| 2026-05-07 16:42 | 40.37618 | -74.30894 | 34936 ft | 542 kts | 29° |
| 2026-05-07 16:43 | 40.43461 | -74.24648 | 34924 ft | 541 kts | 29° |
| 2026-05-07 16:43 | 40.49293 | -74.18392 | 34920 ft | 541 kts | 29° |
| 2026-05-07 16:44 | 40.55076 | -74.12160 | 34920 ft | 540 kts | 29° |
| 2026-05-07 16:44 | 40.60878 | -74.05897 | 34933 ft | 539 kts | 29° |
| 2026-05-07 16:45 | 40.66672 | -73.99624 | 34942 ft | 539 kts | 30° |
| 2026-05-07 16:45 | 40.72449 | -73.93350 | 34937 ft | 538 kts | 30° |
| 2026-05-07 16:46 | 40.78225 | -73.87059 | 34916 ft | 537 kts | 30° |
| 2026-05-07 16:46 | 40.83971 | -73.80729 | 34913 ft | 542 kts | 35° |
| 2026-05-07 16:47 | 40.88905 | -73.73008 | 34919 ft | 555 kts | 46° |
| 2026-05-07 16:47 | 40.93466 | -73.64744 | 34906 ft | 556 kts | 48° |
| 2026-05-07 16:48 | 40.97847 | -73.56525 | 34906 ft | 541 kts | 48° |
| 2026-05-07 16:48 | 41.02149 | -73.48368 | 34904 ft | 541 kts | 48° |
| 2026-05-07 16:49 | 41.06473 | -73.40159 | 34907 ft | 542 kts | 49° |
| 2026-05-07 16:49 | 41.10777 | -73.31965 | 34904 ft | 540 kts | 49° |
| 2026-05-07 16:50 | 41.15055 | -73.23797 | 34907 ft | 537 kts | 49° |
| 2026-05-07 16:50 | 41.19318 | -73.15643 | 34905 ft | 538 kts | 49° |
| 2026-05-07 16:51 | 41.23564 | -73.07493 | 34908 ft | 535 kts | 50° |
| 2026-05-07 16:51 | 41.27763 | -72.99333 | 34894 ft | 535 kts | 52° |
| 2026-05-07 16:52 | 41.31699 | -72.91000 | 34897 ft | 534 kts | 54° |
| 2026-05-07 16:52 | 41.35551 | -72.82534 | 34893 ft | 534 kts | 55° |
| 2026-05-07 16:53 | 41.39361 | -72.74056 | 34902 ft | 532 kts | 55° |
| 2026-05-07 16:53 | 41.43130 | -72.65620 | 34878 ft | 533 kts | 56° |
| 2026-05-07 16:54 | 41.46919 | -72.57100 | 34877 ft | 533 kts | 56° |
| 2026-05-07 16:54 | 41.50691 | -72.48596 | 34872 ft | 533 kts | 56° |
| 2026-05-07 16:55 | 41.54435 | -72.40135 | 34879 ft | 532 kts | 56° |
| 2026-05-07 16:55 | 41.58199 | -72.31602 | 34879 ft | 532 kts | 56° |
| 2026-05-07 16:56 | 41.61942 | -72.23090 | 34883 ft | 530 kts | 56° |
| 2026-05-07 16:56 | 41.67532 | -72.10330 | 34894 ft | 529 kts | 57° |
| 2026-05-07 16:57 | 41.71217 | -72.01888 | 34883 ft | 528 kts | 57° |
| 2026-05-07 16:57 | 41.74923 | -71.93370 | 34874 ft | 528 kts | 57° |
| 2026-05-07 16:58 | 41.78609 | -71.84857 | 34879 ft | 527 kts | 56° |
| 2026-05-07 16:58 | 41.82979 | -71.77138 | 34852 ft | 520 kts | 45° |
| 2026-05-07 16:59 | 41.87762 | -71.69900 | 34848 ft | 517 kts | 43° |
| 2026-05-07 16:59 | 41.92612 | -71.62762 | 34855 ft | 517 kts | 43° |
| 2026-05-07 17:00 | 41.97470 | -71.55651 | 34850 ft | 516 kts | 43° |
| 2026-05-07 17:00 | 42.02334 | -71.48524 | 34843 ft | 515 kts | 43° |
| 2026-05-07 17:01 | 42.07125 | -71.41482 | 34835 ft | 513 kts | 43° |
| 2026-05-07 17:01 | 42.11946 | -71.34380 | 34827 ft | 513 kts | 43° |
| 2026-05-07 17:02 | 42.16759 | -71.27269 | 34826 ft | 512 kts | 43° |
| 2026-05-07 17:02 | 42.21550 | -71.20168 | 34827 ft | 511 kts | 43° |
| 2026-05-07 17:03 | 42.26294 | -71.13110 | 34840 ft | 511 kts | 43° |
| 2026-05-07 17:03 | 42.31051 | -71.05974 | 34795 ft | 508 kts | 43° |
| 2026-05-07 17:04 | 42.36081 | -70.99412 | 34816 ft | 499 kts | 30° |
| 2026-05-07 17:04 | 42.41827 | -70.94145 | 34818 ft | 498 kts | 26° |
| 2026-05-07 17:05 | 42.47650 | -70.89109 | 34808 ft | 494 kts | 26° |
| 2026-05-07 17:05 | 42.53434 | -70.84176 | 34810 ft | 495 kts | 25° |
| 2026-05-07 17:06 | 42.59281 | -70.79206 | 34804 ft | 496 kts | 25° |
| 2026-05-07 17:06 | 42.65118 | -70.74239 | 34806 ft | 495 kts | 25° |
| 2026-05-07 17:07 | 42.70959 | -70.69262 | 34802 ft | 496 kts | 25° |
| 2026-05-07 17:07 | 42.76805 | -70.64271 | 34804 ft | 497 kts | 25° |
| 2026-05-07 17:08 | 42.82681 | -70.59248 | 34798 ft | 498 kts | 25° |
| 2026-05-07 17:08 | 42.88553 | -70.54215 | 34800 ft | 499 kts | 25° |
| 2026-05-07 17:09 | 42.94446 | -70.49157 | 34795 ft | 501 kts | 26° |
| 2026-05-07 17:09 | 42.97396 | -70.46619 | 34626 ft | 503 kts | 26° |
| 2026-05-07 17:09 | 43.00321 | -70.44106 | 34361 ft | 499 kts | 26° |
| 2026-05-07 17:10 | 43.03216 | -70.41604 | 34121 ft | 486 kts | 26° |
| 2026-05-07 17:10 | 43.06043 | -70.39156 | 33650 ft | 476 kts | 26° |
| 2026-05-07 17:10 | 43.08830 | -70.36742 | 32912 ft | 472 kts | 26° |
| 2026-05-07 17:10 | 43.11595 | -70.34348 | 32198 ft | 468 kts | 26° |
| 2026-05-07 17:11 | 43.14339 | -70.31973 | 31523 ft | 463 kts | 26° |
| 2026-05-07 17:11 | 43.17055 | -70.29621 | 30863 ft | 459 kts | 27° |
| 2026-05-07 17:11 | 43.19745 | -70.27291 | 30219 ft | 456 kts | 27° |
| 2026-05-07 17:11 | 43.22424 | -70.24968 | 29520 ft | 452 kts | 27° |
| 2026-05-07 17:12 | 43.25041 | -70.22697 | 28841 ft | 447 kts | 27° |
| 2026-05-07 17:12 | 43.27654 | -70.20427 | 28167 ft | 443 kts | 27° |
| 2026-05-07 17:12 | 43.30245 | -70.18173 | 27509 ft | 439 kts | 28° |
| 2026-05-07 17:12 | 43.32814 | -70.15934 | 26855 ft | 435 kts | 28° |
| 2026-05-07 17:13 | 43.35358 | -70.13714 | 26236 ft | 431 kts | 28° |
| 2026-05-07 17:13 | 43.37874 | -70.11517 | 25624 ft | 427 kts | 28° |
| 2026-05-07 17:13 | 43.40373 | -70.09332 | 25033 ft | 424 kts | 28° |
| 2026-05-07 17:13 | 43.42851 | -70.07163 | 24443 ft | 420 kts | 28° |
| 2026-05-07 17:14 | 43.45313 | -70.05005 | 23865 ft | 417 kts | 28° |
| 2026-05-07 17:14 | 43.47751 | -70.02866 | 23296 ft | 414 kts | 29° |
| 2026-05-07 17:14 | 43.50166 | -70.00743 | 22641 ft | 411 kts | 29° |
| 2026-05-07 17:14 | 43.52535 | -69.98658 | 22008 ft | 407 kts | 29° |
| 2026-05-07 17:15 | 43.54913 | -69.96565 | 21381 ft | 404 kts | 29° |
| 2026-05-07 17:15 | 43.57272 | -69.94486 | 20771 ft | 401 kts | 29° |
| 2026-05-07 17:15 | 43.59613 | -69.92421 | 20188 ft | 398 kts | 29° |
| 2026-05-07 17:15 | 43.61940 | -69.90367 | 19607 ft | 395 kts | 30° |
| 2026-05-07 17:16 | 43.64247 | -69.88329 | 19036 ft | 392 kts | 30° |
| 2026-05-07 17:16 | 43.66542 | -69.86302 | 18480 ft | 389 kts | 30° |
| 2026-05-07 17:16 | 43.68817 | -69.84290 | 17919 ft | 387 kts | 30° |
| 2026-05-07 17:16 | 43.71076 | -69.82287 | 17315 ft | 383 kts | 30° |
| 2026-05-07 17:17 | 43.73280 | -69.80330 | 16731 ft | 380 kts | 30° |
| 2026-05-07 17:17 | 43.75496 | -69.78360 | 16157 ft | 377 kts | 30° |
| 2026-05-07 17:17 | 43.77690 | -69.76407 | 15599 ft | 374 kts | 30° |
| 2026-05-07 17:17 | 43.79865 | -69.74467 | 15032 ft | 371 kts | 30° |
| 2026-05-07 17:18 | 43.82023 | -69.72544 | 14489 ft | 368 kts | 30° |
| 2026-05-07 17:18 | 43.84167 | -69.70633 | 13947 ft | 365 kts | 30° |
| 2026-05-07 17:18 | 43.86298 | -69.68731 | 13409 ft | 362 kts | 30° |
| 2026-05-07 17:18 | 43.88411 | -69.66843 | 12849 ft | 359 kts | 30° |
| 2026-05-07 17:19 | 43.90501 | -69.64976 | 12310 ft | 355 kts | 30° |
| 2026-05-07 17:19 | 43.92573 | -69.63121 | 11763 ft | 352 kts | 30° |
| 2026-05-07 17:19 | 43.94653 | -69.61264 | 11376 ft | 359 kts | 30° |
| 2026-05-07 17:19 | 43.96720 | -69.59412 | 11176 ft | 348 kts | 30° |
| 2026-05-07 17:20 | 43.98723 | -69.57613 | 11109 ft | 347 kts | 30° |
| 2026-05-07 17:20 | 44.00749 | -69.55798 | 11063 ft | 347 kts | 30° |
| 2026-05-07 17:20 | 44.02778 | -69.53980 | 11055 ft | 347 kts | 30° |
| 2026-05-07 17:20 | 44.04805 | -69.52156 | 11040 ft | 346 kts | 30° |
| 2026-05-07 17:21 | 44.06828 | -69.50337 | 11035 ft | 346 kts | 30° |
| 2026-05-07 17:21 | 44.08854 | -69.48516 | 11043 ft | 347 kts | 30° |
| 2026-05-07 17:21 | 44.10884 | -69.46688 | 11041 ft | 346 kts | 30° |
| 2026-05-07 17:21 | 44.12879 | -69.44889 | 11039 ft | 346 kts | 30° |
| 2026-05-07 17:22 | 44.14903 | -69.43064 | 11025 ft | 345 kts | 30° |
| 2026-05-07 17:22 | 44.16925 | -69.41238 | 11024 ft | 346 kts | 30° |
| 2026-05-07 17:22 | 44.18947 | -69.39411 | 11021 ft | 347 kts | 30° |
| 2026-05-07 17:22 | 44.20970 | -69.37582 | 11021 ft | 346 kts | 30° |
| 2026-05-07 17:23 | 44.22987 | -69.35753 | 11019 ft | 345 kts | 30° |
| 2026-05-07 17:23 | 44.25008 | -69.33922 | 11016 ft | 346 kts | 30° |
| 2026-05-07 17:23 | 44.27001 | -69.32115 | 11019 ft | 345 kts | 30° |
| 2026-05-07 17:23 | 44.29013 | -69.30288 | 11020 ft | 345 kts | 30° |
| 2026-05-07 17:24 | 44.31028 | -69.28458 | 11019 ft | 346 kts | 30° |
| 2026-05-07 17:24 | 44.33045 | -69.26622 | 11012 ft | 345 kts | 31° |
| 2026-05-07 17:24 | 44.35042 | -69.24757 | 11003 ft | 345 kts | 31° |
| 2026-05-07 17:24 | 44.37032 | -69.22872 | 10912 ft | 345 kts | 32° |
| 2026-05-07 17:25 | 44.38846 | -69.20688 | 10577 ft | 344 kts | 51° |
| 2026-05-07 17:25 | 44.39766 | -69.18894 | 10263 ft | 341 kts | 59° |
| 2026-05-07 17:25 | 44.40951 | -69.16034 | 9782 ft | 337 kts | 63° |
| 2026-05-07 17:25 | 44.42055 | -69.13163 | 9257 ft | 333 kts | 64° |
| 2026-05-07 17:26 | 44.43128 | -69.10307 | 8717 ft | 330 kts | 64° |
| 2026-05-07 17:26 | 44.44183 | -69.07479 | 8207 ft | 325 kts | 65° |
| 2026-05-07 17:26 | 44.45226 | -69.04683 | 7692 ft | 322 kts | 65° |
| 2026-05-07 17:26 | 44.46244 | -69.01948 | 7216 ft | 318 kts | 65° |
| 2026-05-07 17:27 | 44.47258 | -68.99220 | 6752 ft | 314 kts | 65° |
| 2026-05-07 17:27 | 44.48266 | -68.96524 | 6264 ft | 311 kts | 65° |
| 2026-05-07 17:27 | 44.49269 | -68.93847 | 5753 ft | 309 kts | 65° |
| 2026-05-07 17:27 | 44.50263 | -68.91192 | 5266 ft | 305 kts | 64° |
| 2026-05-07 17:28 | 44.51241 | -68.88571 | 4822 ft | 300 kts | 65° |
| 2026-05-07 17:28 | 44.52184 | -68.86047 | 4641 ft | 285 kts | 65° |
| 2026-05-07 17:28 | 44.53086 | -68.83641 | 4485 ft | 272 kts | 65° |
| 2026-05-07 17:28 | 44.53946 | -68.81374 | 4303 ft | 261 kts | 65° |
| 2026-05-07 17:29 | 44.54785 | -68.79163 | 4087 ft | 251 kts | 65° |
| 2026-05-07 17:29 | 44.55584 | -68.77056 | 3720 ft | 244 kts | 65° |
| 2026-05-07 17:29 | 44.56392 | -68.74932 | 3334 ft | 245 kts | 65° |
| 2026-05-07 17:29 | 44.57170 | -68.72881 | 3148 ft | 228 kts | 65° |
| 2026-05-07 17:30 | 44.57906 | -68.70941 | 3066 ft | 224 kts | 65° |
| 2026-05-07 17:30 | 44.58640 | -68.69018 | 2980 ft | 224 kts | 65° |
| 2026-05-07 17:30 | 44.59374 | -68.67102 | 2794 ft | 222 kts | 64° |
| 2026-05-07 17:30 | 44.60089 | -68.65218 | 2656 ft | 218 kts | 64° |
| 2026-05-07 17:31 | 44.60909 | -68.63411 | 2626 ft | 220 kts | 43° |
| 2026-05-07 17:31 | 44.62228 | -68.62388 | 2604 ft | 217 kts | 19° |
| 2026-05-07 17:31 | 44.63663 | -68.61690 | 2580 ft | 215 kts | 4° |
| 2026-05-07 17:31 | 44.65102 | -68.61814 | 2609 ft | 207 kts | 342° |
| 2026-05-07 17:32 | 44.66332 | -68.62689 | 2606 ft | 198 kts | 315° |
| 2026-05-07 17:32 | 44.67421 | -68.63871 | 2592 ft | 196 kts | 313° |
| 2026-05-07 17:32 | 44.68443 | -68.65109 | 2562 ft | 191 kts | 309° |
| 2026-05-07 17:32 | 44.69400 | -68.66399 | 2581 ft | 191 kts | 307° |
| 2026-05-07 17:33 | 44.70328 | -68.67712 | 2586 ft | 187 kts | 306° |
| 2026-05-07 17:33 | 44.71215 | -68.68988 | 2572 ft | 182 kts | 304° |
| 2026-05-07 17:33 | 44.72071 | -68.70276 | 2316 ft | 181 kts | 305° |
| 2026-05-07 17:33 | 44.72937 | -68.71559 | 2041 ft | 184 kts | 306° |
| 2026-05-07 17:34 | 44.73828 | -68.72862 | 1776 ft | 183 kts | 308° |
| 2026-05-07 17:34 | 44.74721 | -68.74130 | 1539 ft | 179 kts | 309° |
| 2026-05-07 17:34 | 44.75519 | -68.75247 | 1305 ft | 149 kts | 309° |
| 2026-05-07 17:34 | 44.76238 | -68.76278 | 1087 ft | 146 kts | 308° |
| 2026-05-07 17:35 | 44.76923 | -68.77298 | 888 ft | 141 kts | 309° |
| 2026-05-07 17:35 | 44.77570 | -68.78304 | 753 ft | 143 kts | 311° |
| 2026-05-07 17:35 | 44.78243 | -68.79275 | 555 ft | 135 kts | 315° |
| 2026-05-07 17:35 | 44.78922 | -68.80209 | 402 ft | 136 kts | 315° |
| 2026-05-07 17:36 | 44.79584 | -68.81152 | 251 ft | 135 kts | 315° |
| 2026-05-07 17:36 | 44.80248 | -68.82090 | 193 ft | 134 kts | 315° |
| 2026-05-07 17:36 | 44.80831 | -68.82929 | 200 ft | 91 kts | 313° |
| 2026-05-07 17:36 | 44.81143 | -68.83310 | 196 ft | 30 kts | 3° |
| 2026-05-07 17:37 | 44.81254 | -68.83186 | 191 ft | 18 kts | 43° |
| 2026-05-07 17:37 | 44.81316 | -68.83060 | 191 ft | 14 kts | 95° |
| 2026-05-07 17:37 | 44.81257 | -68.82949 | 197 ft | 18 kts | 132° |
| 2026-05-07 17:37 | 44.81149 | -68.82794 | 189 ft | 26 kts | 134° |
| 2026-05-07 17:38 | 44.81005 | -68.82585 | 198 ft | 32 kts | 134° |
| 2026-05-07 17:38 | 44.80856 | -68.82366 | 193 ft | 29 kts | 126° |
| 2026-05-07 17:38 | 44.80889 | -68.82134 | 191 ft | 22 kts | 45° |
| 2026-05-07 17:38 | 44.80909 | -68.82038 | 187 ft | 5 kts | 134° |
| 2026-05-07 17:39 | 44.80866 | -68.81974 | 183 ft | 8 kts | 133° |
| 2026-05-07 17:39 | 44.80843 | -68.81944 | 183 ft | 2 kts | 131° |
| 2026-05-07 17:39 | 44.80830 | -68.81924 | 183 ft | 3 kts | 131° |
| 2026-05-07 17:39 | 44.80823 | -68.81914 | 183 ft | 0 kts | 131° |